createdAt,value
2019-03-01T00:01:54.023Z,24.33
2019-03-01T00:05:21.184Z,24.33
2019-03-01T00:08:16.072Z,23.73
2019-03-01T00:11:43.855Z,25.70
2019-03-01T00:15:03.065Z,27.50
2019-03-01T00:18:38.785Z,25.93
2019-03-01T00:22:16.963Z,27.00
2019-03-01T00:25:45.960Z,25.73
2019-03-01T00:29:16.609Z,28.70
2019-03-01T00:32:30.998Z,27.37
2019-03-01T00:36:12.650Z,27.10
2019-03-01T00:39:25.951Z,29.20
2019-03-01T00:42:54.883Z,30.10
2019-03-01T00:45:27.701Z,27.83
2019-03-01T00:48:00.649Z,26.00
2019-03-01T00:50:33.839Z,24.67
2019-03-01T00:53:07.338Z,22.33
2019-03-01T00:55:45.909Z,22.10
2019-03-01T00:58:18.909Z,22.87
2019-03-01T01:00:53.103Z,23.50
2019-03-01T01:03:26.059Z,23.47
2019-03-01T01:05:58.889Z,24.23
2019-03-01T01:08:31.857Z,22.07
2019-03-01T01:13:55.551Z,24.40
2019-03-01T01:16:28.421Z,22.03
2019-03-01T01:19:01.297Z,23.80
2019-03-01T01:21:34.506Z,25.77
2019-03-01T01:24:09.110Z,26.47
2019-03-01T01:26:42.486Z,28.87
2019-03-01T01:29:15.406Z,28.47
2019-03-01T01:31:48.410Z,29.27
2019-03-01T01:34:21.391Z,29.47
2019-03-01T01:36:54.426Z,29.17
2019-03-01T01:39:28.880Z,30.23
2019-03-01T01:42:01.983Z,28.87
2019-03-01T01:44:34.872Z,29.00
2019-03-01T01:47:07.690Z,29.87
2019-03-01T01:49:40.641Z,27.97
2019-03-01T01:52:14.734Z,28.10
2019-03-01T01:54:47.830Z,27.57
2019-03-01T01:57:20.834Z,27.87
2019-03-01T01:59:53.761Z,28.37
2019-03-01T02:02:26.749Z,29.50
2019-03-01T02:04:59.705Z,28.27
2019-03-01T02:07:34.259Z,31.67
2019-03-01T02:10:08.737Z,34.33
2019-03-01T02:12:41.753Z,29.33
2019-03-01T02:15:15.114Z,25.47
2019-03-01T02:17:49.142Z,25.10
2019-03-01T02:20:22.067Z,27.37
2019-03-01T02:22:54.880Z,25.70
2019-03-01T02:25:27.881Z,25.20
2019-03-01T02:28:00.743Z,25.03
2019-03-01T02:30:34.608Z,25.90
2019-03-01T02:33:07.669Z,24.00
2019-03-01T02:35:40.679Z,24.70
2019-03-01T02:38:13.631Z,22.23
2019-03-01T02:40:46.534Z,24.13
2019-03-01T02:43:19.387Z,23.30
2019-03-01T02:45:52.506Z,21.80
2019-03-01T02:48:25.600Z,22.37
2019-03-01T02:50:58.487Z,23.10
2019-03-01T02:53:31.295Z,22.30
2019-03-01T02:56:04.270Z,22.80
2019-03-01T02:58:37.270Z,20.87
2019-03-01T03:01:10.184Z,21.33
2019-03-01T03:03:43.078Z,22.70
2019-03-01T03:06:37.719Z,21.33
2019-03-01T03:09:11.770Z,20.67
2019-03-01T03:11:44.874Z,22.33
2019-03-01T03:14:17.894Z,23.63
2019-03-01T03:16:50.877Z,23.17
2019-03-01T03:19:23.749Z,22.37
2019-03-01T03:21:56.608Z,22.60
2019-03-01T03:24:29.603Z,22.17
2019-03-01T03:27:02.565Z,21.67
2019-03-01T03:29:36.714Z,21.83
2019-03-01T03:32:11.098Z,20.93
2019-03-01T03:34:44.138Z,22.73
2019-03-01T03:37:16.935Z,21.90
2019-03-01T03:39:49.809Z,22.50
2019-03-01T03:42:22.860Z,22.27
2019-03-01T03:44:55.856Z,22.27
2019-03-01T03:47:28.943Z,23.33
2019-03-01T03:50:02.076Z,21.90
2019-03-01T03:52:39.367Z,23.43
2019-03-01T03:55:14.503Z,22.83
2019-03-01T03:57:48.159Z,24.97
2019-03-01T04:00:21.501Z,21.47
2019-03-01T04:02:54.610Z,25.10
2019-03-01T04:05:27.580Z,24.83
2019-03-01T04:08:00.520Z,24.70
2019-03-01T04:10:33.396Z,25.33
2019-03-01T04:13:06.433Z,24.13
2019-03-01T04:15:39.509Z,24.50
2019-03-01T04:18:12.424Z,27.47
2019-03-01T04:20:45.460Z,28.67
2019-03-01T04:23:18.533Z,28.17
2019-03-01T04:25:51.366Z,26.13
2019-03-01T04:28:24.292Z,26.90
2019-03-01T04:30:57.617Z,27.80
2019-03-01T04:33:30.780Z,29.07
2019-03-01T04:36:03.822Z,27.83
2019-03-01T04:38:37.012Z,28.43
2019-03-01T04:41:09.948Z,29.37
2019-03-01T04:43:43.955Z,27.27
2019-03-01T04:46:16.791Z,29.57
2019-03-01T04:48:49.748Z,28.87
2019-03-01T04:51:22.639Z,30.20
2019-03-01T04:53:55.511Z,30.70
2019-03-01T04:56:28.891Z,29.53
2019-03-01T04:59:01.793Z,29.90
2019-03-01T05:01:36.983Z,30.63
2019-03-01T05:04:12.190Z,29.57
2019-03-01T05:06:45.294Z,29.80
2019-03-01T05:09:18.615Z,28.87
2019-03-01T05:11:51.667Z,29.43
2019-03-01T05:14:24.587Z,28.83
2019-03-01T05:16:57.686Z,29.60
2019-03-01T05:19:31.564Z,28.00
2019-03-01T05:22:04.639Z,28.57
2019-03-01T05:24:37.764Z,25.70
2019-03-01T05:27:12.707Z,25.97
2019-03-01T05:29:50.418Z,28.50
2019-03-01T05:32:28.667Z,30.20
2019-03-01T05:35:13.196Z,28.03
2019-03-01T05:37:53.696Z,25.40
2019-03-01T05:40:29.123Z,25.53
2019-03-01T05:43:02.097Z,27.33
2019-03-01T05:45:49.756Z,27.13
2019-03-01T05:48:25.014Z,25.10
2019-03-01T05:50:58.433Z,26.40
2019-03-01T05:53:38.930Z,26.83
2019-03-01T05:56:11.851Z,26.83
2019-03-01T05:58:50.496Z,27.33
2019-03-01T06:02:07.423Z,26.53
2019-03-01T06:04:51.665Z,24.53
2019-03-01T06:08:21.120Z,24.73
2019-03-01T06:11:33.170Z,26.80
2019-03-01T06:15:12.298Z,26.33
2019-03-01T06:18:49.542Z,24.90
2019-03-01T06:21:50.797Z,24.13
2019-03-01T06:25:35.984Z,24.77
2019-03-01T06:29:02.628Z,24.97
2019-03-01T06:33:00.758Z,23.63
2019-03-01T06:36:19.486Z,24.27
2019-03-01T06:40:15.857Z,25.27
2019-03-01T06:43:39.198Z,26.60
2019-03-01T06:47:17.911Z,25.77
2019-03-01T06:50:04.601Z,24.53
2019-03-01T06:52:37.311Z,24.77
2019-03-01T06:55:31.556Z,31.30
2019-03-01T06:58:11.516Z,33.03
2019-03-01T07:00:50.473Z,32.30
2019-03-01T07:03:25.845Z,30.70
2019-03-01T07:06:03.737Z,30.73
2019-03-01T07:09:07.064Z,28.03
2019-03-01T07:12:10.825Z,27.57
2019-03-01T07:15:08.741Z,25.23
2019-03-01T07:18:16.388Z,25.93
2019-03-01T07:21:01.759Z,24.83
2019-03-01T07:25:06.458Z,25.37
2019-03-01T07:27:54.752Z,25.50
2019-03-01T07:35:03.486Z,23.10
2019-03-01T07:37:42.294Z,24.93
2019-03-01T07:40:18.990Z,23.40
2019-03-01T07:42:54.361Z,22.20
2019-03-01T07:45:32.002Z,22.50
2019-03-01T07:48:05.038Z,23.50
2019-03-01T07:50:38.286Z,24.33
2019-03-01T07:53:11.395Z,23.13
2019-03-01T07:55:46.536Z,21.93
2019-03-01T07:58:21.559Z,22.57
2019-03-01T08:00:54.792Z,21.00
2019-03-01T08:03:28.015Z,18.73
2019-03-01T08:06:05.591Z,20.93
2019-03-01T08:08:47.457Z,21.10
2019-03-01T08:11:20.564Z,21.67
2019-03-01T08:14:04.871Z,22.23
2019-03-01T08:16:39.400Z,21.27
2019-03-01T08:19:17.065Z,21.40
2019-03-01T08:21:55.817Z,21.17
2019-03-01T08:24:29.128Z,21.17
2019-03-01T08:27:06.492Z,22.23
2019-03-01T08:29:40.601Z,20.50
2019-03-01T08:32:30.635Z,20.40
2019-03-01T08:35:20.428Z,22.60
2019-03-01T08:38:01.400Z,23.77
2019-03-01T08:40:36.046Z,20.77
2019-03-01T08:43:29.685Z,20.60
2019-03-01T08:46:09.577Z,22.57
2019-03-01T08:48:41.085Z,22.90
2019-03-01T08:51:22.759Z,22.10
2019-03-01T08:54:16.808Z,21.43
2019-03-01T08:56:52.872Z,22.10
2019-03-01T08:59:27.589Z,22.17
2019-03-01T09:02:11.842Z,21.40
2019-03-01T09:04:51.119Z,24.13
2019-03-01T09:07:30.228Z,23.23
2019-03-01T09:10:08.684Z,23.17
2019-03-01T09:12:41.917Z,24.70
2019-03-01T09:15:36.728Z,26.20
2019-03-01T09:18:11.496Z,23.30
2019-03-01T09:20:44.317Z,23.37
2019-03-01T09:23:27.274Z,25.77
2019-03-01T09:26:11.140Z,27.27
2019-03-01T09:28:46.951Z,26.20
2019-03-01T09:31:22.603Z,23.97
2019-03-01T09:34:06.144Z,22.97
2019-03-01T09:36:51.475Z,22.73
2019-03-01T09:39:33.901Z,23.57
2019-03-01T09:42:21.043Z,20.53
2019-03-01T09:45:06.890Z,22.13
2019-03-01T09:50:31.656Z,20.70
2019-03-01T09:53:04.792Z,20.83
2019-03-01T09:55:39.287Z,18.80
2019-03-01T09:58:17.269Z,18.53
2019-03-01T10:01:13.794Z,19.40
2019-03-01T10:03:56.169Z,19.07
2019-03-01T10:06:37.791Z,17.43
2019-03-01T10:09:25.713Z,18.50
2019-03-01T10:12:20.217Z,17.97
2019-03-01T10:15:21.881Z,18.57
2019-03-01T10:18:06.941Z,20.60
2019-03-01T10:21:06.938Z,22.60
2019-03-01T10:24:50.999Z,16.00
2019-03-01T10:27:59.686Z,19.13
2019-03-01T10:30:59.722Z,17.03
2019-03-01T10:33:55.168Z,15.80
2019-03-01T10:36:34.664Z,15.33
2019-03-01T10:39:59.285Z,15.63
2019-03-01T10:42:48.071Z,16.73
2019-03-01T10:45:40.350Z,15.10
2019-03-01T10:48:17.731Z,15.60
2019-03-01T10:51:07.830Z,15.57
2019-03-01T10:53:47.783Z,14.63
2019-03-01T10:56:23.956Z,14.77
2019-03-01T10:59:05.772Z,15.47
2019-03-01T11:01:55.175Z,14.73
2019-03-01T11:04:48.635Z,15.87
2019-03-01T11:07:31.745Z,14.13
2019-03-01T11:13:38.897Z,16.03
2019-03-01T11:16:19.904Z,15.27
2019-03-01T11:19:00.025Z,15.03
2019-03-01T11:21:36.673Z,14.57
2019-03-01T11:24:29.662Z,15.00
2019-03-01T11:27:27.354Z,16.00
2019-03-01T11:30:11.906Z,15.40
2019-03-01T11:32:47.235Z,14.40
2019-03-01T11:35:20.639Z,14.17
2019-03-01T11:38:00.127Z,14.90
2019-03-01T11:40:38.838Z,14.10
2019-03-01T11:43:23.627Z,13.37
2019-03-01T11:46:00.533Z,14.10
2019-03-01T11:48:44.717Z,15.10
2019-03-01T11:51:24.853Z,13.27
2019-03-01T11:54:07.405Z,14.57
2019-03-01T11:56:53.608Z,13.50
2019-03-01T11:59:29.477Z,14.13
2019-03-01T12:02:30.996Z,14.07
2019-03-01T12:05:30.526Z,13.53
2019-03-01T12:08:17.577Z,16.67
2019-03-01T12:11:12.022Z,15.03
2019-03-01T12:13:51.628Z,14.70
2019-03-01T12:16:26.507Z,14.53
2019-03-01T12:19:04.627Z,15.03
2019-03-01T12:21:41.659Z,14.37
2019-03-01T12:24:14.872Z,14.53
2019-03-01T12:26:49.678Z,14.53
2019-03-01T12:29:30.845Z,14.43
2019-03-01T12:32:07.742Z,17.60
2019-03-01T12:34:42.510Z,15.67
2019-03-01T12:37:17.630Z,15.47
2019-03-01T12:40:07.985Z,14.97
2019-03-01T12:42:56.508Z,16.17
2019-03-01T12:45:44.336Z,16.60
2019-03-01T12:48:18.753Z,16.57
2019-03-01T12:50:55.939Z,16.97
2019-03-01T12:53:34.980Z,15.87
2019-03-01T12:56:21.386Z,14.93
2019-03-01T12:59:04.999Z,20.97
2019-03-01T13:01:38.828Z,22.70
2019-03-01T13:04:32.103Z,17.07
2019-03-01T13:07:20.188Z,16.90
2019-03-01T13:09:58.876Z,21.07
2019-03-01T13:12:36.224Z,19.67
2019-03-01T13:15:21.480Z,18.93
2019-03-01T13:18:32.225Z,17.80
2019-03-01T13:21:14.654Z,17.60
2019-03-01T13:23:51.253Z,17.53
2019-03-01T13:27:17.529Z,17.43
2019-03-01T13:29:58.762Z,16.63
2019-03-01T13:32:36.077Z,17.20
2019-03-01T13:35:16.366Z,15.80
2019-03-01T13:37:57.755Z,17.17
2019-03-01T13:40:38.399Z,20.13
2019-03-01T13:43:13.097Z,19.23
2019-03-01T13:45:52.719Z,18.63
2019-03-01T13:48:27.284Z,20.87
2019-03-01T13:51:01.512Z,21.43
2019-03-01T13:53:35.004Z,20.50
2019-03-01T13:56:08.187Z,22.23
2019-03-01T13:58:45.469Z,19.97
2019-03-01T14:01:27.042Z,18.73
2019-03-01T14:04:03.250Z,19.70
2019-03-01T14:06:46.549Z,21.00
2019-03-01T14:09:27.091Z,17.90
2019-03-01T14:12:04.219Z,18.30
2019-03-01T14:14:45.254Z,18.77
2019-03-01T14:18:00.670Z,18.67
2019-03-01T14:20:36.085Z,21.17
2019-03-01T14:23:43.069Z,20.27
2019-03-01T14:26:26.349Z,18.83
2019-03-01T14:29:16.947Z,18.93
2019-03-01T14:31:56.639Z,20.03
2019-03-01T14:34:29.883Z,21.23
2019-03-01T14:37:03.505Z,21.63
2019-03-01T14:39:38.144Z,22.83
2019-03-01T14:42:18.847Z,23.07
2019-03-01T14:44:51.834Z,24.30
2019-03-01T14:47:29.126Z,21.23
2019-03-01T14:50:00.698Z,19.83
2019-03-01T14:52:33.538Z,23.20
2019-03-01T14:55:07.588Z,20.37
2019-03-01T14:57:47.082Z,23.30
2019-03-01T15:01:00.155Z,22.83
2019-03-01T15:03:40.633Z,23.10
2019-03-01T15:06:15.468Z,25.60
2019-03-01T15:08:48.250Z,24.03
2019-03-01T15:11:23.668Z,25.90
2019-03-01T15:13:57.683Z,26.43
2019-03-01T15:16:30.636Z,28.27
2019-03-01T15:19:04.789Z,28.53
2019-03-01T15:21:38.429Z,30.67
2019-03-01T15:24:12.526Z,32.87
2019-03-01T15:26:46.274Z,35.43
2019-03-01T15:29:19.200Z,33.93
2019-03-01T15:31:55.065Z,37.17
2019-03-01T15:34:26.922Z,31.93
2019-03-01T15:36:59.863Z,32.40
2019-03-01T15:39:33.022Z,36.57
2019-03-01T15:42:05.969Z,33.23
2019-03-01T15:44:38.997Z,31.57
2019-03-01T15:47:12.144Z,32.50
2019-03-01T15:49:48.027Z,31.87
2019-03-01T15:52:21.161Z,32.07
2019-03-01T15:54:54.305Z,28.53
2019-03-01T15:57:27.546Z,30.00
2019-03-01T16:00:03.530Z,30.93
2019-03-01T16:02:40.286Z,33.57
2019-03-01T16:05:21.688Z,32.70
2019-03-01T16:07:57.208Z,33.73
2019-03-01T16:10:32.917Z,36.07
2019-03-01T16:13:08.413Z,34.07
2019-03-01T16:15:41.271Z,55.63
2019-03-01T16:18:17.004Z,49.13
2019-03-01T16:20:57.354Z,49.90
2019-03-01T16:23:32.593Z,39.33
2019-03-01T16:26:05.993Z,34.90
2019-03-01T16:28:40.410Z,40.57
2019-03-01T16:31:18.013Z,42.63
2019-03-01T16:33:53.558Z,74.50
2019-03-01T16:36:30.733Z,67.30
2019-03-01T16:39:08.567Z,59.17
2019-03-01T16:41:55.369Z,54.07
2019-03-01T16:44:41.690Z,66.23
2019-03-01T16:47:23.310Z,75.07
2019-03-01T16:49:58.946Z,74.90
2019-03-01T16:52:35.538Z,66.27
2019-03-01T16:55:24.452Z,62.90
2019-03-01T16:58:20.159Z,64.90
2019-03-01T17:01:19.189Z,59.63
2019-03-01T17:04:04.192Z,59.17
2019-03-01T17:06:45.496Z,73.07
2019-03-01T17:09:19.013Z,77.60
2019-03-01T17:11:52.255Z,68.10
2019-03-01T17:14:25.313Z,75.13
2019-03-01T17:17:16.857Z,87.47
2019-03-01T17:19:50.189Z,129.77
2019-03-01T17:22:28.057Z,132.23
2019-03-01T17:25:01.298Z,145.37
2019-03-01T17:27:36.730Z,121.20
2019-03-01T17:30:18.151Z,109.30
2019-03-01T17:33:12.808Z,110.43
2019-03-01T17:35:49.271Z,116.30
2019-03-01T17:38:22.925Z,129.67
2019-03-01T17:40:56.507Z,141.30
2019-03-01T17:43:34.235Z,140.03
2019-03-01T17:46:09.707Z,147.47
2019-03-01T17:48:45.641Z,172.97
2019-03-01T17:51:21.074Z,181.17
2019-03-01T17:53:56.001Z,141.70
2019-03-01T17:56:31.123Z,136.80
2019-03-01T17:59:08.251Z,132.50
2019-03-01T18:01:41.083Z,132.33
2019-03-01T18:04:14.338Z,125.37
2019-03-01T18:06:48.713Z,123.13
2019-03-01T18:09:22.122Z,126.63
2019-03-01T18:11:56.758Z,130.53
2019-03-01T18:14:33.802Z,128.50
2019-03-01T18:17:06.468Z,127.60
2019-03-01T18:19:40.392Z,129.97
2019-03-01T18:22:14.849Z,126.97
2019-03-01T18:24:52.327Z,96.43
2019-03-01T18:27:29.813Z,76.67
2019-03-01T18:30:19.978Z,84.23
2019-03-01T18:33:10.366Z,90.23
2019-03-01T18:35:55.942Z,87.70
2019-03-01T18:38:34.654Z,81.33
2019-03-01T18:41:29.235Z,89.37
2019-03-01T18:44:06.504Z,93.97
2019-03-01T18:46:40.452Z,96.73
2019-03-01T18:49:16.712Z,96.47
2019-03-01T18:51:57.616Z,116.37
2019-03-01T18:54:25.991Z,112.83
2019-03-01T18:57:00.746Z,113.97
2019-03-01T18:59:37.980Z,111.90
2019-03-01T19:02:10.311Z,110.63
2019-03-01T19:04:44.169Z,96.27
2019-03-01T19:07:24.369Z,98.63
2019-03-01T19:10:10.696Z,89.90
2019-03-01T19:12:48.643Z,85.33
2019-03-01T19:15:22.643Z,81.13
2019-03-01T19:18:02.395Z,81.67
2019-03-01T19:20:41.553Z,79.20
2019-03-01T19:23:14.869Z,72.63
2019-03-01T19:25:48.245Z,73.00
2019-03-01T19:28:23.565Z,87.37
2019-03-01T19:31:00.928Z,87.30
2019-03-01T19:33:37.861Z,132.73
2019-03-01T19:36:13.646Z,114.47
2019-03-01T19:38:52.301Z,104.47
2019-03-01T19:41:25.487Z,73.97
2019-03-01T19:43:58.652Z,76.00
2019-03-01T19:46:37.096Z,75.17
2019-03-01T19:49:12.999Z,74.13
2019-03-01T19:51:48.891Z,67.53
2019-03-01T19:54:22.351Z,65.27
2019-03-01T19:57:01.565Z,61.17
2019-03-01T19:59:42.672Z,61.70
2019-03-01T20:02:18.669Z,53.43
2019-03-01T20:04:52.636Z,51.10
2019-03-01T20:07:27.450Z,52.97
2019-03-01T20:10:01.010Z,55.63
2019-03-01T20:12:40.491Z,54.37
2019-03-01T20:15:17.645Z,55.57
2019-03-01T20:17:56.829Z,58.23
2019-03-01T20:20:33.365Z,66.93
2019-03-01T20:23:10.744Z,81.63
2019-03-01T20:25:47.519Z,71.93
2019-03-01T20:28:27.198Z,68.97
2019-03-01T20:31:04.831Z,58.80
2019-03-01T20:33:39.458Z,57.93
2019-03-01T20:36:17.630Z,52.10
2019-03-01T20:38:57.114Z,57.13
2019-03-01T20:41:31.544Z,53.17
2019-03-01T20:44:10.890Z,53.80
2019-03-01T20:46:45.006Z,53.73
2019-03-01T20:49:22.172Z,53.50
2019-03-01T20:51:58.792Z,53.13
2019-03-01T20:54:32.870Z,57.23
2019-03-01T20:57:09.196Z,58.93
2019-03-01T20:59:50.569Z,61.10
2019-03-01T21:02:29.168Z,54.07
2019-03-01T21:05:05.217Z,53.33
2019-03-01T21:07:41.325Z,51.20
2019-03-01T21:10:22.624Z,57.27
2019-03-01T21:12:56.336Z,52.53
2019-03-01T21:15:34.667Z,58.00
2019-03-01T21:18:12.013Z,54.23
2019-03-01T21:20:50.557Z,61.83
2019-03-01T21:23:28.901Z,65.40
2019-03-01T21:26:04.874Z,71.27
2019-03-01T21:28:38.471Z,75.00
2019-03-01T21:31:16.502Z,75.47
2019-03-01T21:33:50.949Z,76.73
2019-03-01T21:36:37.350Z,84.90
2019-03-01T21:39:04.838Z,76.63
2019-03-01T21:41:41.539Z,90.70
2019-03-01T21:44:19.135Z,98.80
2019-03-01T21:46:55.647Z,185.10
2019-03-01T21:49:33.240Z,192.30
2019-03-01T21:52:11.096Z,153.40
2019-03-01T21:54:52.032Z,152.30
2019-03-01T21:57:27.515Z,163.27
2019-03-01T22:00:10.566Z,177.87
2019-03-01T22:02:48.908Z,209.23
2019-03-01T22:05:21.302Z,226.83
2019-03-01T22:08:09.598Z,217.53
2019-03-01T22:10:41.819Z,228.90
2019-03-01T22:13:15.687Z,240.67
2019-03-01T22:16:01.023Z,233.30
2019-03-01T22:18:33.305Z,223.33
2019-03-01T22:21:12.048Z,198.63
2019-03-01T22:23:51.442Z,195.00
2019-03-01T22:26:25.989Z,177.03
2019-03-01T22:29:01.900Z,173.20
2019-03-01T22:31:36.858Z,171.97
2019-03-01T22:34:11.071Z,170.03
2019-03-01T22:36:49.467Z,146.93
2019-03-01T22:39:24.315Z,123.03
2019-03-01T22:41:59.274Z,116.43
2019-03-01T22:44:36.537Z,106.03
2019-03-01T22:47:11.016Z,111.73
2019-03-01T22:49:45.760Z,109.13
2019-03-01T22:52:23.117Z,109.87
2019-03-01T22:55:01.904Z,109.67
2019-03-01T22:57:36.082Z,97.37
2019-03-01T23:00:57.966Z,83.60
2019-03-01T23:03:36.362Z,74.97
2019-03-01T23:06:14.688Z,68.37
2019-03-01T23:08:54.383Z,68.37
2019-03-01T23:11:32.411Z,72.73
2019-03-01T23:14:06.716Z,73.93
2019-03-01T23:16:40.144Z,63.20
2019-03-01T23:19:16.104Z,65.40
2019-03-01T23:21:47.975Z,61.83
2019-03-01T23:24:20.829Z,53.17
2019-03-01T23:26:56.773Z,50.17
2019-03-01T23:29:36.243Z,48.80
2019-03-01T23:32:15.436Z,45.53
2019-03-01T23:34:49.549Z,41.77
2019-03-01T23:37:22.583Z,40.23
2019-03-01T23:39:57.124Z,47.73
2019-03-01T23:42:30.220Z,43.47
2019-03-01T23:45:06.914Z,44.17
2019-03-01T23:47:39.848Z,39.57
2019-03-01T23:50:12.619Z,52.40
2019-03-01T23:52:45.425Z,54.10
2019-03-01T23:55:19.929Z,50.00
2019-03-01T23:57:52.882Z,48.77
